sensor_id;sensor_type;location;lat;lon;timestamp;pressure;altitude;pressure_sealevel;temperature;humidity
4167;BME280;2097;51.104;7.150;2023-01-30T00:01:06;99143.31;;;0.88;100.00
4167;BME280;2097;51.104;7.150;2023-01-30T00:03:33;99152.44;;;1.04;100.00
4167;BME280;2097;51.104;7.150;2023-01-30T00:06:00;99163.47;;;1.09;100.00
4167;BME280;2097;51.104;7.150;2023-01-30T00:08:26;99148.88;;;1.15;100.00
4167;BME280;2097;51.104;7.150;2023-01-30T00:10:53;99134.28;;;1.21;100.00
4167;BME280;2097;51.104;7.150;2023-01-30T00:13:22;99118.03;;;1.27;100.00
4167;BME280;2097;51.104;7.150;2023-01-30T00:15:49;99122.19;;;1.32;100.00
4167;BME280;2097;51.104;7.150;2023-01-30T00:18:15;99113.59;;;1.36;100.00
4167;BME280;2097;51.104;7.150;2023-01-30T00:20:42;99116.97;;;1.38;100.00
4167;BME280;2097;51.104;7.150;2023-01-30T00:23:09;99127.16;;;1.41;100.00
4167;BME280;2097;51.104;7.150;2023-01-30T00:25:36;99139.81;;;1.47;100.00
4167;BME280;2097;51.104;7.150;2023-01-30T00:28:03;99128.66;;;1.53;100.00
4167;BME280;2097;51.104;7.150;2023-01-30T00:30:31;99114.25;;;1.49;100.00
4167;BME280;2097;51.104;7.150;2023-01-30T00:32:58;98953.75;;;0.71;100.00
4167;BME280;2097;51.104;7.150;2023-01-30T00:35:25;99107.91;;;1.68;100.00
4167;BME280;2097;51.104;7.150;2023-01-30T00:37:57;99112.13;;;1.72;100.00
4167;BME280;2097;51.104;7.150;2023-01-30T00:40:26;99113.78;;;1.74;100.00
4167;BME280;2097;51.104;7.150;2023-01-30T00:42:53;99077.28;;;1.66;100.00
4167;BME280;2097;51.104;7.150;2023-01-30T00:45:40;99085.50;;;1.82;100.00
4167;BME280;2097;51.104;7.150;2023-01-30T00:48:39;99085.41;;;1.86;100.00
4167;BME280;2097;51.104;7.150;2023-01-30T00:51:06;99086.22;;;1.90;100.00
4167;BME280;2097;51.104;7.150;2023-01-30T00:53:32;99098.97;;;1.91;100.00
4167;BME280;2097;51.104;7.150;2023-01-30T00:55:59;99054.34;;;1.62;100.00
4167;BME280;2097;51.104;7.150;2023-01-30T00:58:26;99092.94;;;1.95;100.00
4167;BME280;2097;51.104;7.150;2023-01-30T01:00:54;99083.44;;;2.00;100.00
4167;BME280;2097;51.104;7.150;2023-01-30T01:03:21;99062.06;;;2.03;100.00
4167;BME280;2097;51.104;7.150;2023-01-30T01:05:48;99051.78;;;2.06;100.00
4167;BME280;2097;51.104;7.150;2023-01-30T01:08:15;99057.69;;;2.09;100.00
4167;BME280;2097;51.104;7.150;2023-01-30T01:10:42;99064.44;;;2.13;100.00
4167;BME280;2097;51.104;7.150;2023-01-30T01:13:09;99057.50;;;2.18;100.00
4167;BME280;2097;51.104;7.150;2023-01-30T01:15:36;99059.91;;;2.24;100.00
4167;BME280;2097;51.104;7.150;2023-01-30T01:18:05;99063.22;;;2.29;100.00
4167;BME280;2097;51.104;7.150;2023-01-30T01:20:32;99072.53;;;2.34;100.00
4167;BME280;2097;51.104;7.150;2023-01-30T01:22:58;99057.06;;;2.39;100.00
4167;BME280;2097;51.104;7.150;2023-01-30T01:25:25;99051.81;;;2.43;100.00
4167;BME280;2097;51.104;7.150;2023-01-30T01:27:53;99057.75;;;2.47;100.00
4167;BME280;2097;51.104;7.150;2023-01-30T01:30:19;99050.00;;;2.50;100.00
4167;BME280;2097;51.104;7.150;2023-01-30T01:32:46;99050.81;;;2.52;100.00
4167;BME280;2097;51.104;7.150;2023-01-30T01:35:15;99040.50;;;2.53;100.00
4167;BME280;2097;51.104;7.150;2023-01-30T01:37:43;99040.44;;;2.56;100.00
4167;BME280;2097;51.104;7.150;2023-01-30T01:40:16;99025.03;;;2.58;100.00
4167;BME280;2097;51.104;7.150;2023-01-30T01:43:00;99027.56;;;2.59;100.00
4167;BME280;2097;51.104;7.150;2023-01-30T01:45:28;99024.09;;;2.62;100.00
4167;BME280;2097;51.104;7.150;2023-01-30T01:48:01;99021.50;;;2.63;100.00
4167;BME280;2097;51.104;7.150;2023-01-30T01:50:39;99035.13;;;2.65;100.00
4167;BME280;2097;51.104;7.150;2023-01-30T01:53:08;99034.19;;;2.68;100.00
4167;BME280;2097;51.104;7.150;2023-01-30T01:55:38;99025.66;;;2.69;100.00
4167;BME280;2097;51.104;7.150;2023-01-30T01:58:09;99017.97;;;2.69;100.00
4167;BME280;2097;51.104;7.150;2023-01-30T02:00:38;99029.00;;;2.71;100.00
4167;BME280;2097;51.104;7.150;2023-01-30T02:03:08;99019.63;;;2.71;100.00
4167;BME280;2097;51.104;7.150;2023-01-30T02:05:40;99030.63;;;2.75;100.00
4167;BME280;2097;51.104;7.150;2023-01-30T02:08:10;98967.56;;;2.33;100.00
4167;BME280;2097;51.104;7.150;2023-01-30T02:10:45;99007.50;;;2.78;100.00
4167;BME280;2097;51.104;7.150;2023-01-30T02:13:14;98997.25;;;2.78;100.00
4167;BME280;2097;51.104;7.150;2023-01-30T02:15:41;98997.22;;;2.79;100.00
4167;BME280;2097;51.104;7.150;2023-01-30T02:18:08;98994.69;;;2.78;100.00
4167;BME280;2097;51.104;7.150;2023-01-30T02:20:50;98966.84;;;2.64;100.00
4167;BME280;2097;51.104;7.150;2023-01-30T02:23:44;98986.97;;;2.79;100.00
4167;BME280;2097;51.104;7.150;2023-01-30T02:26:34;98986.06;;;2.82;100.00
4167;BME280;2097;51.104;7.150;2023-01-30T02:29:20;98974.97;;;2.81;100.00
4167;BME280;2097;51.104;7.150;2023-01-30T02:31:53;98976.63;;;2.82;100.00
4167;BME280;2097;51.104;7.150;2023-01-30T02:34:32;98754.44;;;1.57;100.00
4167;BME280;2097;51.104;7.150;2023-01-30T02:37:08;98965.50;;;2.85;100.00
4167;BME280;2097;51.104;7.150;2023-01-30T02:39:47;98963.75;;;2.85;100.00
4167;BME280;2097;51.104;7.150;2023-01-30T02:42:21;98964.53;;;2.89;100.00
4167;BME280;2097;51.104;7.150;2023-01-30T02:44:56;98952.56;;;2.89;100.00
4167;BME280;2097;51.104;7.150;2023-01-30T02:47:30;98949.16;;;2.89;100.00
4167;BME280;2097;51.104;7.150;2023-01-30T02:50:03;98925.44;;;2.81;100.00
4167;BME280;2097;51.104;7.150;2023-01-30T02:52:34;98942.28;;;2.91;100.00
4167;BME280;2097;51.104;7.150;2023-01-30T02:55:07;98944.84;;;2.91;100.00
4167;BME280;2097;51.104;7.150;2023-01-30T02:57:34;98937.06;;;2.94;100.00
4167;BME280;2097;51.104;7.150;2023-01-30T03:00:04;98927.59;;;2.96;100.00
4167;BME280;2097;51.104;7.150;2023-01-30T03:02:48;98920.78;;;2.96;100.00
4167;BME280;2097;51.104;7.150;2023-01-30T03:05:47;98912.22;;;2.97;100.00
4167;BME280;2097;51.104;7.150;2023-01-30T03:08:23;98904.53;;;2.97;100.00
4167;BME280;2097;51.104;7.150;2023-01-30T03:10:57;98907.88;;;2.99;100.00
4167;BME280;2097;51.104;7.150;2023-01-30T03:13:33;98910.41;;;3.01;100.00
4167;BME280;2097;51.104;7.150;2023-01-30T03:16:09;98918.88;;;3.03;100.00
4167;BME280;2097;51.104;7.150;2023-01-30T03:18:41;98917.97;;;3.05;100.00
4167;BME280;2097;51.104;7.150;2023-01-30T03:21:10;98905.97;;;3.07;100.00
4167;BME280;2097;51.104;7.150;2023-01-30T03:23:37;98897.41;;;3.08;100.00
4167;BME280;2097;51.104;7.150;2023-01-30T03:26:07;98860.59;;;2.79;100.00
4167;BME280;2097;51.104;7.150;2023-01-30T03:28:38;98911.03;;;3.09;100.00
4167;BME280;2097;51.104;7.150;2023-01-30T03:31:06;98718.44;;;1.99;100.00
4167;BME280;2097;51.104;7.150;2023-01-30T03:33:34;98905.09;;;3.08;100.00
4167;BME280;2097;51.104;7.150;2023-01-30T03:36:03;98905.09;;;3.08;100.00
4167;BME280;2097;51.104;7.150;2023-01-30T03:38:30;98897.34;;;3.10;100.00
4167;BME280;2097;51.104;7.150;2023-01-30T03:40:56;98886.22;;;3.11;100.00
4167;BME280;2097;51.104;7.150;2023-01-30T03:43:23;98879.41;;;3.10;100.00
4167;BME280;2097;51.104;7.150;2023-01-30T03:45:50;98881.09;;;3.11;100.00
4167;BME280;2097;51.104;7.150;2023-01-30T03:48:17;98884.44;;;3.13;100.00
4167;BME280;2097;51.104;7.150;2023-01-30T03:50:44;98878.44;;;3.14;100.00
4167;BME280;2097;51.104;7.150;2023-01-30T03:53:12;98869.88;;;3.15;100.00
4167;BME280;2097;51.104;7.150;2023-01-30T03:55:42;98861.25;;;3.17;100.00
4167;BME280;2097;51.104;7.150;2023-01-30T03:58:09;98872.28;;;3.19;100.00
4167;BME280;2097;51.104;7.150;2023-01-30T04:00:36;98862.81;;;3.23;100.00
4167;BME280;2097;51.104;7.150;2023-01-30T04:03:03;98866.13;;;3.26;100.00
4167;BME280;2097;51.104;7.150;2023-01-30T04:05:30;98862.69;;;3.27;100.00
4167;BME280;2097;51.104;7.150;2023-01-30T04:07:57;98851.47;;;3.30;100.00
4167;BME280;2097;51.104;7.150;2023-01-30T04:10:26;98637.28;;;2.04;100.00
4167;BME280;2097;51.104;7.150;2023-01-30T04:12:53;98842.03;;;3.32;100.00
4167;BME280;2097;51.104;7.150;2023-01-30T04:15:20;98821.50;;;3.33;100.00
4167;BME280;2097;51.104;7.150;2023-01-30T04:17:47;98819.81;;;3.32;100.00
4167;BME280;2097;51.104;7.150;2023-01-30T04:20:14;98818.06;;;3.33;100.00
4167;BME280;2097;51.104;7.150;2023-01-30T04:22:41;98810.38;;;3.33;100.00
4167;BME280;2097;51.104;7.150;2023-01-30T04:25:08;98824.88;;;3.33;100.00
4167;BME280;2097;51.104;7.150;2023-01-30T04:27:37;98825.66;;;3.35;100.00
4167;BME280;2097;51.104;7.150;2023-01-30T04:30:04;98823.03;;;3.38;100.00
4167;BME280;2097;51.104;7.150;2023-01-30T04:32:32;98828.16;;;3.38;100.00
4167;BME280;2097;51.104;7.150;2023-01-30T04:34:58;98830.72;;;3.38;100.00
4167;BME280;2097;51.104;7.150;2023-01-30T04:37:25;98832.41;;;3.39;100.00
4167;BME280;2097;51.104;7.150;2023-01-30T04:39:52;98827.19;;;3.42;100.00
4167;BME280;2097;51.104;7.150;2023-01-30T04:42:19;98823.78;;;3.42;100.00
4167;BME280;2097;51.104;7.150;2023-01-30T04:44:47;98810.91;;;3.43;100.00
4167;BME280;2097;51.104;7.150;2023-01-30T04:47:15;98816.00;;;3.45;100.00
4167;BME280;2097;51.104;7.150;2023-01-30T04:49:42;98821.09;;;3.46;100.00
4167;BME280;2097;51.104;7.150;2023-01-30T04:52:09;98826.16;;;3.48;100.00
4167;BME280;2097;51.104;7.150;2023-01-30T04:54:35;98818.44;;;3.49;100.00
4167;BME280;2097;51.104;7.150;2023-01-30T04:57:02;98823.50;;;3.51;100.00
4167;BME280;2097;51.104;7.150;2023-01-30T04:59:29;98814.94;;;3.52;100.00
4167;BME280;2097;51.104;7.150;2023-01-30T05:01:58;98794.81;;;3.38;100.00
4167;BME280;2097;51.104;7.150;2023-01-30T05:04:24;98816.56;;;3.54;100.00
4167;BME280;2097;51.104;7.150;2023-01-30T05:06:51;98822.53;;;3.55;100.00
4167;BME280;2097;51.104;7.150;2023-01-30T05:11:46;98812.34;;;3.53;100.00
4167;BME280;2097;51.104;7.150;2023-01-30T05:14:13;98809.78;;;3.52;100.00
4167;BME280;2097;51.104;7.150;2023-01-30T05:16:39;98814.94;;;3.52;100.00
4167;BME280;2097;51.104;7.150;2023-01-30T05:19:08;98797.81;;;3.52;100.00
4167;BME280;2097;51.104;7.150;2023-01-30T05:21:37;98789.25;;;3.53;100.00
4167;BME280;2097;51.104;7.150;2023-01-30T05:24:04;98792.63;;;3.54;100.00
4167;BME280;2097;51.104;7.150;2023-01-30T05:26:31;98806.31;;;3.54;100.00
4167;BME280;2097;51.104;7.150;2023-01-30T05:28:58;98786.63;;;3.55;100.00
4167;BME280;2097;51.104;7.150;2023-01-30T05:31:25;98783.16;;;3.56;100.00
4167;BME280;2097;51.104;7.150;2023-01-30T05:33:52;98787.47;;;3.55;100.00
4167;BME280;2097;51.104;7.150;2023-01-30T05:36:21;98791.72;;;3.56;100.00
4167;BME280;2097;51.104;7.150;2023-01-30T05:38:48;98779.69;;;3.58;100.00
4167;BME280;2097;51.104;7.150;2023-01-30T05:41:16;98777.13;;;3.58;100.00
4167;BME280;2097;51.104;7.150;2023-01-30T05:43:43;98784.72;;;3.61;100.00
4167;BME280;2097;51.104;7.150;2023-01-30T05:46:11;98787.31;;;3.60;100.00
4167;BME280;2097;51.104;7.150;2023-01-30T05:48:38;98755.63;;;3.62;100.00
4167;BME280;2097;51.104;7.150;2023-01-30T05:51:05;98693.00;;;3.15;100.00
4167;BME280;2097;51.104;7.150;2023-01-30T05:53:33;98772.69;;;3.63;100.00
4167;BME280;2097;51.104;7.150;2023-01-30T05:56:03;98653.47;;;2.94;100.00
4167;BME280;2097;51.104;7.150;2023-01-30T05:58:31;98765.66;;;3.68;100.00
4167;BME280;2097;51.104;7.150;2023-01-30T06:01:02;98766.47;;;3.70;100.00
4167;BME280;2097;51.104;7.150;2023-01-30T06:03:29;98767.25;;;3.72;100.00
4167;BME280;2097;51.104;7.150;2023-01-30T06:05:56;98767.22;;;3.74;100.00
4167;BME280;2097;51.104;7.150;2023-01-30T06:08:23;98767.16;;;3.75;100.00
4167;BME280;2097;51.104;7.150;2023-01-30T06:10:52;98758.59;;;3.76;100.00
4167;BME280;2097;51.104;7.150;2023-01-30T06:13:19;98769.66;;;3.78;100.00
4167;BME280;2097;51.104;7.150;2023-01-30T06:15:46;98772.19;;;3.80;100.00
4167;BME280;2097;51.104;7.150;2023-01-30T06:18:12;98775.53;;;3.82;100.00
4167;BME280;2097;51.104;7.150;2023-01-30T06:20:39;98784.84;;;3.84;100.00
4167;BME280;2097;51.104;7.150;2023-01-30T06:23:06;98780.44;;;3.88;100.00
4167;BME280;2097;51.104;7.150;2023-01-30T06:25:33;98783.00;;;3.88;100.00
4167;BME280;2097;51.104;7.150;2023-01-30T06:28:01;98798.31;;;3.91;100.00
4167;BME280;2097;51.104;7.150;2023-01-30T06:30:28;98789.75;;;3.92;100.00
4167;BME280;2097;51.104;7.150;2023-01-30T06:32:54;98796.53;;;3.94;100.00
4167;BME280;2097;51.104;7.150;2023-01-30T06:35:21;98794.75;;;3.96;100.00
4167;BME280;2097;51.104;7.150;2023-01-30T06:37:48;98788.63;;;4.00;100.00
4167;BME280;2097;51.104;7.150;2023-01-30T06:40:16;98783.38;;;4.03;100.00
4167;BME280;2097;51.104;7.150;2023-01-30T06:45:17;98808.16;;;4.04;100.00
4167;BME280;2097;51.104;7.150;2023-01-30T06:47:45;98780.78;;;4.05;100.00
4167;BME280;2097;51.104;7.150;2023-01-30T06:50:13;98773.84;;;4.07;100.00
4167;BME280;2097;51.104;7.150;2023-01-30T06:52:40;98784.84;;;4.10;100.00
4167;BME280;2097;51.104;7.150;2023-01-30T06:55:08;98790.78;;;4.12;100.00
4167;BME280;2097;51.104;7.150;2023-01-30T06:57:35;98828.28;;;4.18;100.00
4167;BME280;2097;51.104;7.150;2023-01-30T07:00:03;98717.78;;;3.41;100.00
4167;BME280;2097;51.104;7.150;2023-01-30T07:02:31;98833.16;;;4.25;100.00
4167;BME280;2097;51.104;7.150;2023-01-30T07:04:59;98829.63;;;4.29;100.00
4167;BME280;2097;51.104;7.150;2023-01-30T07:07:26;98826.09;;;4.32;100.00
4167;BME280;2097;51.104;7.150;2023-01-30T07:09:53;98763.09;;;3.96;100.00
4167;BME280;2097;51.104;7.150;2023-01-30T07:12:20;98818.28;;;4.35;100.00
4167;BME280;2097;51.104;7.150;2023-01-30T07:14:47;98813.88;;;4.38;100.00
4167;BME280;2097;51.104;7.150;2023-01-30T07:17:13;98825.84;;;4.39;100.00
4167;BME280;2097;51.104;7.150;2023-01-30T07:19:42;98788.72;;;4.23;100.00
4167;BME280;2097;51.104;7.150;2023-01-30T07:22:09;98822.38;;;4.40;100.00
4167;BME280;2097;51.104;7.150;2023-01-30T07:24:36;98815.47;;;4.42;100.00
4167;BME280;2097;51.104;7.150;2023-01-30T07:27:02;98805.16;;;4.44;100.00
4167;BME280;2097;51.104;7.150;2023-01-30T07:29:29;98772.22;;;4.30;100.00
4167;BME280;2097;51.104;7.150;2023-01-30T07:31:56;98814.44;;;4.47;100.00
4167;BME280;2097;51.104;7.150;2023-01-30T07:34:23;98819.50;;;4.49;100.00
4167;BME280;2097;51.104;7.150;2023-01-30T07:36:51;98810.91;;;4.50;100.00
4167;BME280;2097;51.104;7.150;2023-01-30T07:39:18;98820.28;;;4.52;100.00
4167;BME280;2097;51.104;7.150;2023-01-30T07:41:45;98812.50;;;4.54;100.00
4167;BME280;2097;51.104;7.150;2023-01-30T07:44:12;98800.50;;;4.54;100.00
4167;BME280;2097;51.104;7.150;2023-01-30T07:46:39;98659.50;;;3.72;100.00
4167;BME280;2097;51.104;7.150;2023-01-30T07:49:08;98818.34;;;4.57;100.00
4167;BME280;2097;51.104;7.150;2023-01-30T07:51:34;98831.19;;;4.59;100.00
4167;BME280;2097;51.104;7.150;2023-01-30T07:54:03;98817.38;;;4.61;100.00
4167;BME280;2097;51.104;7.150;2023-01-30T07:56:30;98818.22;;;4.62;100.00
4167;BME280;2097;51.104;7.150;2023-01-30T07:58:56;98831.88;;;4.64;100.00
4167;BME280;2097;51.104;7.150;2023-01-30T08:01:23;98835.22;;;4.66;100.00
4167;BME280;2097;51.104;7.150;2023-01-30T08:03:50;98841.94;;;4.70;100.00
4167;BME280;2097;51.104;7.150;2023-01-30T08:06:17;98834.97;;;4.73;100.00
4167;BME280;2097;51.104;7.150;2023-01-30T08:08:44;98828.84;;;4.76;100.00
4167;BME280;2097;51.104;7.150;2023-01-30T08:11:12;98840.78;;;4.78;100.00
4167;BME280;2097;51.104;7.150;2023-01-30T08:13:39;98848.44;;;4.80;100.00
4167;BME280;2097;51.104;7.150;2023-01-30T08:16:06;98852.66;;;4.82;100.00
4167;BME280;2097;51.104;7.150;2023-01-30T08:18:33;98833.28;;;4.72;100.00
4167;BME280;2097;51.104;7.150;2023-01-30T08:21:02;98851.59;;;4.88;100.00
4167;BME280;2097;51.104;7.150;2023-01-30T08:23:30;98855.81;;;4.90;100.00
4167;BME280;2097;51.104;7.150;2023-01-30T08:25:59;98791.06;;;4.55;100.00
4167;BME280;2097;51.104;7.150;2023-01-30T08:28:28;98855.75;;;4.92;100.00
4167;BME280;2097;51.104;7.150;2023-01-30T08:30:56;98873.72;;;4.92;100.00
4167;BME280;2097;51.104;7.150;2023-01-30T08:33:24;98868.50;;;4.95;100.00
4167;BME280;2097;51.104;7.150;2023-01-30T08:35:50;98881.34;;;4.95;100.00
4167;BME280;2097;51.104;7.150;2023-01-30T08:38:17;98877.78;;;4.99;100.00
4167;BME280;2097;51.104;7.150;2023-01-30T08:40:46;98856.22;;;5.03;100.00
4167;BME280;2097;51.104;7.150;2023-01-30T08:43:13;98864.66;;;5.06;100.00
4167;BME280;2097;51.104;7.150;2023-01-30T08:45:41;98863.66;;;5.10;100.00
4167;BME280;2097;51.104;7.150;2023-01-30T08:48:08;98870.41;;;5.13;100.00
4167;BME280;2097;51.104;7.150;2023-01-30T08:50:35;98871.19;;;5.15;100.00
4167;BME280;2097;51.104;7.150;2023-01-30T08:53:03;98872.78;;;5.19;100.00
4167;BME280;2097;51.104;7.150;2023-01-30T08:55:31;98869.19;;;5.23;100.00
4167;BME280;2097;51.104;7.150;2023-01-30T08:57:58;98864.66;;;5.29;100.00
4167;BME280;2097;51.104;7.150;2023-01-30T09:00:26;98866.31;;;5.32;100.00
4167;BME280;2097;51.104;7.150;2023-01-30T09:02:55;98879.06;;;5.35;100.00
4167;BME280;2097;51.104;7.150;2023-01-30T09:05:22;98884.16;;;5.36;100.00
4167;BME280;2097;51.104;7.150;2023-01-30T09:07:50;98897.06;;;5.35;100.00
4167;BME280;2097;51.104;7.150;2023-01-30T09:10:17;98904.00;;;5.33;100.00
4167;BME280;2097;51.104;7.150;2023-01-30T09:12:44;98896.28;;;5.33;100.00
4167;BME280;2097;51.104;7.150;2023-01-30T09:15:11;98877.38;;;5.34;100.00
4167;BME280;2097;51.104;7.150;2023-01-30T09:17:38;98865.41;;;5.33;100.00
4167;BME280;2097;51.104;7.150;2023-01-30T09:20:08;98847.56;;;5.28;100.00
4167;BME280;2097;51.104;7.150;2023-01-30T09:22:35;98852.78;;;5.27;100.00
4167;BME280;2097;51.104;7.150;2023-01-30T09:25:02;98855.13;;;5.33;100.00
4167;BME280;2097;51.104;7.150;2023-01-30T09:27:29;98841.25;;;5.37;100.00
4167;BME280;2097;51.104;7.150;2023-01-30T09:29:56;98840.41;;;5.36;100.00
4167;BME280;2097;51.104;7.150;2023-01-30T09:32:22;98836.50;;;5.26;100.00
4167;BME280;2097;51.104;7.150;2023-01-30T09:34:49;98851.66;;;5.34;100.00
4167;BME280;2097;51.104;7.150;2023-01-30T09:37:18;98868.03;;;5.31;100.00
4167;BME280;2097;51.104;7.150;2023-01-30T09:39:45;98874.91;;;5.31;100.00
4167;BME280;2097;51.104;7.150;2023-01-30T09:42:37;98903.13;;;5.34;100.00
4167;BME280;2097;51.104;7.150;2023-01-30T09:48:04;98891.88;;;5.36;100.00
4167;BME280;2097;51.104;7.150;2023-01-30T09:50:42;98895.41;;;5.34;100.00
4167;BME280;2097;51.104;7.150;2023-01-30T09:53:17;98894.63;;;5.32;100.00
4167;BME280;2097;51.104;7.150;2023-01-30T09:55:48;98892.16;;;5.29;100.00
4167;BME280;2097;51.104;7.150;2023-01-30T09:58:17;98891.28;;;5.28;100.00
4167;BME280;2097;51.104;7.150;2023-01-30T10:00:45;98911.84;;;5.30;100.00
4167;BME280;2097;51.104;7.150;2023-01-30T10:03:16;98891.16;;;5.33;100.00
4167;BME280;2097;51.104;7.150;2023-01-30T10:05:47;98917.69;;;5.33;100.00
4167;BME280;2097;51.104;7.150;2023-01-30T10:08:38;98903.84;;;5.37;100.00
4167;BME280;2097;51.104;7.150;2023-01-30T10:11:17;98873.25;;;5.30;100.00
4167;BME280;2097;51.104;7.150;2023-01-30T10:14:03;98897.75;;;5.40;100.00
4167;BME280;2097;51.104;7.150;2023-01-30T10:16:37;98908.06;;;5.40;100.00
4167;BME280;2097;51.104;7.150;2023-01-30T10:19:22;98917.44;;;5.41;100.00
4167;BME280;2097;51.104;7.150;2023-01-30T10:21:59;98906.31;;;5.40;100.00
4167;BME280;2097;51.104;7.150;2023-01-30T10:24:50;98914.78;;;5.44;100.00
4167;BME280;2097;51.104;7.150;2023-01-30T10:27:22;98910.44;;;5.44;100.00
4167;BME280;2097;51.104;7.150;2023-01-30T10:29:52;98910.53;;;5.43;100.00
4167;BME280;2097;51.104;7.150;2023-01-30T10:32:24;98908.06;;;5.40;100.00
4167;BME280;2097;51.104;7.150;2023-01-30T10:34:56;98921.81;;;5.39;100.00
4167;BME280;2097;51.104;7.150;2023-01-30T10:37:26;98940.16;;;5.28;100.00
4167;BME280;2097;51.104;7.150;2023-01-30T10:40:02;98934.72;;;5.37;100.00
4167;BME280;2097;51.104;7.150;2023-01-30T10:42:35;98933.88;;;5.37;100.00
4167;BME280;2097;51.104;7.150;2023-01-30T10:45:09;98928.75;;;5.37;100.00
4167;BME280;2097;51.104;7.150;2023-01-30T10:47:44;98910.75;;;5.35;100.00
4167;BME280;2097;51.104;7.150;2023-01-30T10:50:17;98927.16;;;5.33;100.00
4167;BME280;2097;51.104;7.150;2023-01-30T10:52:51;98916.91;;;5.31;100.00
4167;BME280;2097;51.104;7.150;2023-01-30T10:55:28;98930.72;;;5.29;100.00
4167;BME280;2097;51.104;7.150;2023-01-30T10:58:02;98939.28;;;5.29;100.00
4167;BME280;2097;51.104;7.150;2023-01-30T11:00:35;98934.03;;;5.32;100.00
4167;BME280;2097;51.104;7.150;2023-01-30T11:03:19;98940.91;;;5.32;100.00
4167;BME280;2097;51.104;7.150;2023-01-30T11:05:48;98919.44;;;5.33;100.00
4167;BME280;2097;51.104;7.150;2023-01-30T11:08:22;98928.84;;;5.34;100.00
4167;BME280;2097;51.104;7.150;2023-01-30T11:10:52;98933.09;;;5.35;100.00
4167;BME280;2097;51.104;7.150;2023-01-30T11:13:21;98939.13;;;5.34;100.00
4167;BME280;2097;51.104;7.150;2023-01-30T11:15:52;98919.44;;;5.33;100.00
4167;BME280;2097;51.104;7.150;2023-01-30T11:18:20;98926.31;;;5.32;100.00
4167;BME280;2097;51.104;7.150;2023-01-30T11:21:00;98928.84;;;5.34;100.00
4167;BME280;2097;51.104;7.150;2023-01-30T11:23:34;98922.03;;;5.33;100.00
4167;BME280;2097;51.104;7.150;2023-01-30T11:26:03;98916.88;;;5.33;100.00
4167;BME280;2097;51.104;7.150;2023-01-30T11:28:35;98938.25;;;5.35;100.00
4167;BME280;2097;51.104;7.150;2023-01-30T11:31:15;98926.16;;;5.37;100.00
4167;BME280;2097;51.104;7.150;2023-01-30T11:33:43;98934.72;;;5.37;100.00
4167;BME280;2097;51.104;7.150;2023-01-30T11:36:23;98926.97;;;5.39;100.00
4167;BME280;2097;51.104;7.150;2023-01-30T11:38:57;98926.59;;;5.48;100.00
4167;BME280;2097;51.104;7.150;2023-01-30T11:41:26;98933.91;;;5.59;100.00
4167;BME280;2097;51.104;7.150;2023-01-30T11:43:59;98932.78;;;5.66;100.00
4167;BME280;2097;51.104;7.150;2023-01-30T11:46:30;98933.47;;;5.71;100.00
4167;BME280;2097;51.104;7.150;2023-01-30T11:49:02;98929.25;;;5.69;100.00
4167;BME280;2097;51.104;7.150;2023-01-30T11:51:32;98949.94;;;5.67;100.00
4167;BME280;2097;51.104;7.150;2023-01-30T11:54:01;98939.63;;;5.67;100.00
4167;BME280;2097;51.104;7.150;2023-01-30T11:56:32;98934.59;;;5.64;100.00
4167;BME280;2097;51.104;7.150;2023-01-30T11:59:02;98934.59;;;5.64;100.00
4167;BME280;2097;51.104;7.150;2023-01-30T12:01:31;98930.25;;;5.65;100.00
4167;BME280;2097;51.104;7.150;2023-01-30T12:04:01;98875.72;;;5.33;100.00
4167;BME280;2097;51.104;7.150;2023-01-30T12:06:35;98925.25;;;5.62;100.00
4167;BME280;2097;51.104;7.150;2023-01-30T12:09:03;98919.25;;;5.61;100.00
4167;BME280;2097;51.104;7.150;2023-01-30T12:11:40;98919.13;;;5.64;100.00
4167;BME280;2097;51.104;7.150;2023-01-30T12:14:23;98926.16;;;5.61;100.00
4167;BME280;2097;51.104;7.150;2023-01-30T12:17:01;98928.72;;;5.61;100.00
4167;BME280;2097;51.104;7.150;2023-01-30T12:19:39;98933.75;;;5.64;100.00
4167;BME280;2097;51.104;7.150;2023-01-30T12:22:18;98927.56;;;5.68;100.00
4167;BME280;2097;51.104;7.150;2023-01-30T12:24:51;98955.78;;;5.71;100.00
4167;BME280;2097;51.104;7.150;2023-01-30T12:27:28;98928.38;;;5.70;100.00
4167;BME280;2097;51.104;7.150;2023-01-30T12:30:04;98925.75;;;5.71;100.00
4167;BME280;2097;51.104;7.150;2023-01-30T12:32:33;98924.00;;;5.72;100.00
4167;BME280;2097;51.104;7.150;2023-01-30T12:35:01;98945.44;;;5.72;100.00
4167;BME280;2097;51.104;7.150;2023-01-30T12:37:44;98950.72;;;5.69;100.00
4167;BME280;2097;51.104;7.150;2023-01-30T12:40:23;98939.41;;;5.73;100.00
4167;BME280;2097;51.104;7.150;2023-01-30T12:43:21;98940.91;;;5.80;100.00
4167;BME280;2097;51.104;7.150;2023-01-30T12:46:01;98936.47;;;5.84;100.00
4167;BME280;2097;51.104;7.150;2023-01-30T12:48:48;98940.50;;;5.91;100.00
4167;BME280;2097;51.104;7.150;2023-01-30T12:51:27;98941.19;;;5.96;100.00
4167;BME280;2097;51.104;7.150;2023-01-30T12:54:02;98933.38;;;5.97;100.00
4167;BME280;2097;51.104;7.150;2023-01-30T12:56:41;98941.00;;;6.00;100.00
4167;BME280;2097;51.104;7.150;2023-01-30T12:59:18;98919.72;;;5.95;100.00
4167;BME280;2097;51.104;7.150;2023-01-30T13:01:56;98937.91;;;6.14;100.00
4167;BME280;2097;51.104;7.150;2023-01-30T13:04:38;98971.56;;;6.09;100.00
4167;BME280;2097;51.104;7.150;2023-01-30T13:07:15;98952.75;;;6.07;100.00
4167;BME280;2097;51.104;7.150;2023-01-30T13:09:52;98951.75;;;6.11;100.00
4167;BME280;2097;51.104;7.150;2023-01-30T13:12:28;98952.56;;;6.12;100.00
4167;BME280;2097;51.104;7.150;2023-01-30T13:15:02;98971.47;;;6.12;100.00
4167;BME280;2097;51.104;7.150;2023-01-30T13:17:44;98962.94;;;6.10;100.00
4167;BME280;2097;51.104;7.150;2023-01-30T13:20:30;98974.25;;;6.06;100.00
4167;BME280;2097;51.104;7.150;2023-01-30T13:23:06;98973.16;;;6.13;100.00
4167;BME280;2097;51.104;7.150;2023-01-30T13:25:39;98967.75;;;6.19;100.00
4167;BME280;2097;51.104;7.150;2023-01-30T13:28:11;98971.53;;;6.32;100.00
4167;BME280;2097;51.104;7.150;2023-01-30T13:30:43;98981.31;;;6.46;100.00
4167;BME280;2097;51.104;7.150;2023-01-30T13:33:13;98983.75;;;6.50;100.00
4167;BME280;2097;51.104;7.150;2023-01-30T13:35:44;98909.09;;;6.04;100.00
4167;BME280;2097;51.104;7.150;2023-01-30T13:38:17;98991.63;;;6.46;100.00
4167;BME280;2097;51.104;7.150;2023-01-30T13:40:47;98991.47;;;6.50;100.00
4167;BME280;2097;51.104;7.150;2023-01-30T13:43:19;98981.84;;;6.55;100.00
4167;BME280;2097;51.104;7.150;2023-01-30T13:45:51;98997.22;;;6.57;100.00
4167;BME280;2097;51.104;7.150;2023-01-30T13:48:32;98997.31;;;6.55;100.00